Time;durP1;ratioP1;P1;durP2;ratioP2;P2;SDS_P1;SDS_P2;PMS_P1;PMS_P2;Temp;Humidity;BMP_temperature;BMP_pressure;BME280_temperature;BME280_humidity;BME280_pressure;Samples;Min_cycle;Max_cycle;Signal;HPM_P1;HPM_P2
2021/01/31 00:00:17;;;;;;;31.53;21.37;;;7.90;90.90;;;;;;4976462;28;20027;-69
2021/01/31 00:02:43;;;;;;;29.07;19.90;;;7.90;90.90;;;;;;4976307;28;20037;-69
2021/01/31 00:05:10;;;;;;;29.53;19.27;;;7.80;90.90;;;;;;4976088;28;20026;-69
2021/01/31 00:07:36;;;;;;;23.57;15.77;;;7.90;90.90;;;;;;4976449;28;20073;-69
2021/01/31 00:10:02;;;;;;;22.53;15.83;;;7.90;90.90;;;;;;4976189;28;20062;-69
2021/01/31 00:12:28;;;;;;;24.07;15.97;;;7.80;90.90;;;;;;4976019;28;20041;-70
2021/01/31 00:14:53;;;;;;;20.50;15.90;;;7.90;90.90;;;;;;4976203;28;20122;-69
2021/01/31 00:17:19;;;;;;;22.50;14.93;;;7.90;90.90;;;;;;4976059;28;20066;-69
2021/01/31 00:19:45;;;;;;;22.67;14.63;;;7.90;90.90;;;;;;4975991;28;20063;-69
2021/01/31 00:22:11;;;;;;;22.60;15.60;;;7.90;91.00;;;;;;4976103;28;20538;-69
2021/01/31 00:24:36;;;;;;;23.43;17.03;;;7.90;90.90;;;;;;4975995;28;20102;-69
2021/01/31 00:27:02;;;;;;;22.23;16.93;;;7.80;90.90;;;;;;4976000;28;20050;-69
2021/01/31 00:29:28;;;;;;;23.87;17.03;;;7.90;90.90;;;;;;4975667;28;20031;-69
2021/01/31 00:31:53;;;;;;;23.80;17.83;;;7.90;91.00;;;;;;4975728;28;20041;-69
2021/01/31 00:34:20;;;;;;;24.40;17.33;;;7.90;91.00;;;;;;4975616;28;20031;-69
2021/01/31 00:36:46;;;;;;;23.20;17.27;;;7.90;91.00;;;;;;4975608;28;20035;-69
2021/01/31 00:39:13;;;;;;;23.17;17.47;;;7.80;91.00;;;;;;4975440;28;20400;-69
2021/01/31 00:41:39;;;;;;;30.10;20.93;;;7.80;91.10;;;;;;4975671;28;20097;-69
2021/01/31 00:44:06;;;;;;;23.40;19.40;;;7.80;91.10;;;;;;4975881;28;20101;-69
2021/01/31 00:46:34;;;;;;;30.30;19.57;;;7.80;91.10;;;;;;4975665;28;20015;-69
2021/01/31 00:49:00;;;;;;;23.97;18.03;;;7.80;91.20;;;;;;4975547;28;20077;-69
2021/01/31 00:51:26;;;;;;;24.13;18.87;;;7.80;91.20;;;;;;4975676;28;20026;-69
2021/01/31 00:53:51;;;;;;;19.83;15.90;;;7.90;91.20;;;;;;4974943;28;20046;-69
2021/01/31 00:56:17;;;;;;;20.87;16.17;;;7.80;91.20;;;;;;4975522;28;20383;-69
2021/01/31 00:58:44;;;;;;;21.27;15.57;;;7.80;91.10;;;;;;4975157;28;20504;-69
2021/01/31 01:01:10;;;;;;;20.87;16.80;;;7.80;91.10;;;;;;4975247;28;20023;-69
2021/01/31 01:03:36;;;;;;;21.60;16.73;;;7.80;91.10;;;;;;4975256;28;20027;-69
2021/01/31 01:06:02;;;;;;;22.20;15.70;;;7.80;91.10;;;;;;4975200;28;20074;-69
2021/01/31 01:08:28;;;;;;;23.43;17.27;;;7.80;91.10;;;;;;4975325;28;20027;-69
2021/01/31 01:10:54;;;;;;;23.43;19.03;;;7.90;91.10;;;;;;4975155;28;20027;-66
2021/01/31 01:13:19;;;;;;;23.93;19.63;;;7.90;91.10;;;;;;4975183;28;20038;-68
2021/01/31 01:15:45;;;;;;;30.27;23.23;;;7.90;91.10;;;;;;4974993;28;20031;-69
2021/01/31 01:18:11;;;;;;;30.17;23.90;;;7.80;91.10;;;;;;4974745;28;20033;-69
2021/01/31 01:20:36;;;;;;;30.23;23.07;;;7.90;91.10;;;;;;4974624;28;20066;-69
2021/01/31 01:23:02;;;;;;;33.80;24.40;;;7.80;91.00;;;;;;4974792;28;20027;-69
2021/01/31 01:25:28;;;;;;;28.60;23.33;;;7.90;91.10;;;;;;4974971;28;20023;-69
2021/01/31 01:27:55;;;;;;;32.77;24.67;;;7.90;91.00;;;;;;4974649;28;20023;-69
2021/01/31 01:30:26;;;;;;;31.70;23.70;;;7.90;91.00;;;;;;4974818;28;20468;-69
2021/01/31 01:32:53;;;;;;;33.60;24.97;;;7.90;91.00;;;;;;4974808;28;20117;-69
2021/01/31 01:35:19;;;;;;;30.60;25.03;;;7.90;91.00;;;;;;4974715;28;20031;-69
2021/01/31 01:37:45;;;;;;;29.47;24.20;;;7.90;91.00;;;;;;4974852;28;20073;-69
2021/01/31 01:40:21;;;;;;;33.63;25.33;;;7.90;91.00;;;;;;4974598;28;20030;-69
2021/01/31 01:42:47;;;;;;;31.20;24.43;;;7.90;91.00;;;;;;4974790;28;20387;-69
2021/01/31 01:45:13;;;;;;;30.63;23.03;;;7.90;91.10;;;;;;4974608;28;20037;-69
2021/01/31 01:47:39;;;;;;;21.80;18.07;;;7.90;91.20;;;;;;4974589;28;20030;-69
2021/01/31 01:50:17;;;;;;;17.87;14.27;;;7.90;91.50;;;;;;4974598;28;20030;-69
2021/01/31 01:52:43;;;;;;;16.23;12.40;;;7.90;91.20;;;;;;4974601;28;20049;-69
2021/01/31 01:55:12;;;;;;;15.63;10.90;;;7.90;91.10;;;;;;4974597;28;20030;-69
2021/01/31 01:57:51;;;;;;;13.23;9.53;;;7.90;91.10;;;;;;4973482;28;20022;-69
2021/01/31 02:00:18;;;;;;;12.20;8.70;;;7.90;91.10;;;;;;4971641;28;20768;-69
2021/01/31 02:03:05;;;;;;;12.47;9.07;;;7.90;91.00;;;;;;4971534;28;20030;-69
2021/01/31 02:05:31;;;;;;;10.50;8.63;;;7.90;91.00;;;;;;4973539;28;20058;-67
2021/01/31 02:07:58;;;;;;;13.80;8.90;;;7.90;90.90;;;;;;4974268;28;20066;-69
2021/01/31 02:10:25;;;;;;;12.37;9.00;;;7.80;90.90;;;;;;4974090;28;20023;-69
2021/01/31 02:13:03;;;;;;;11.80;7.80;;;7.80;91.00;;;;;;4973651;28;20507;-69
2021/01/31 02:15:30;;;;;;;11.07;7.77;;;7.80;91.00;;;;;;4974152;28;20022;-69
2021/01/31 02:18:13;;;;;;;11.37;7.87;;;7.80;91.00;;;;;;4974003;28;20039;-69
2021/01/31 02:20:39;;;;;;;8.73;7.53;;;;;;;;;;4973690;28;20043;-69
2021/01/31 02:23:13;;;;;;;9.37;7.37;;;;;;;;;;4974192;28;20027;-69
2021/01/31 02:25:53;;;;;;;11.23;7.40;;;;;;;;;;4973892;28;20054;-69
2021/01/31 02:28:19;;;;;;;9.03;7.13;;;;;;;;;;4973526;28;20031;-69
2021/01/31 02:31:03;;;;;;;10.17;7.63;;;;;;;;;;4973867;28;20033;-69
2021/01/31 02:33:32;;;;;;;9.73;6.47;;;;;;;;;;4973980;28;20039;-69
2021/01/31 02:36:09;;;;;;;9.93;7.47;;;;;;;;;;4973574;28;20019;-69
2021/01/31 02:38:41;;;;;;;9.60;6.90;;;;;;;;;;4973910;28;20023;-69
2021/01/31 02:41:17;;;;;;;10.27;7.17;;;;;;;;;;4973897;28;20031;-69
2021/01/31 02:43:51;;;;;;;9.27;6.73;;;;;;;;;;4973798;28;20038;-69
2021/01/31 02:46:26;;;;;;;8.20;5.90;;;;;;;;;;4973953;28;20050;-69
2021/01/31 02:48:58;;;;;;;7.13;5.13;;;;;;;;;;4973657;28;20031;-69
2021/01/31 02:51:30;;;;;;;9.05;6.20;;;;;;;;;;4973534;28;20026;-69
2021/01/31 02:54:07;;;;;;;9.43;6.17;;;;;;;;;;4973540;28;20042;-69
2021/01/31 02:56:39;;;;;;;7.70;5.60;;;;;;;;;;4973724;28;20027;-69
2021/01/31 02:59:11;;;;;;;9.87;5.20;;;;;;;;;;4973379;28;20089;-69
2021/01/31 03:01:45;;;;;;;7.03;4.73;;;;;;;;;;4973417;28;20027;-69
2021/01/31 03:04:22;;;;;;;6.93;4.90;;;;;;;;;;4973802;28;20031;-69
2021/01/31 03:06:51;;;;;;;6.27;4.60;;;;;;;;;;4972684;28;20472;-69
2021/01/31 03:09:26;;;;;;;6.37;4.00;;;;;;;;;;4972369;28;20097;-69
2021/01/31 03:12:04;;;;;;;4.43;3.10;;;;;;;;;;4973551;28;20034;-69
2021/01/31 03:14:34;;;;;;;3.00;2.03;;;;;;;;;;4972901;28;20124;-69
2021/01/31 03:17:08;;;;;;;2.43;1.70;;;;;;;;;;4974179;28;20262;-70
2021/01/31 03:19:37;;;;;;;2.57;1.63;;;;;;;;;;4976950;28;20511;-69
2021/01/31 03:22:07;;;;;;;2.60;1.37;;;;;;;;;;4977162;28;20051;-70
2021/01/31 03:24:40;;;;;;;1.93;1.30;;;;;;;;;;4975898;28;20042;-69
2021/01/31 03:27:15;;;;;;;2.75;0.80;;;;;;;;;;4975452;28;20388;-69
2021/01/31 03:29:42;;;;;;;1.60;0.80;;;;;;;;;;4976811;28;20569;-69
2021/01/31 03:32:20;;;;;;;0.93;0.70;;;;;;;;;;4976711;28;20046;-69
2021/01/31 03:34:52;;;;;;;1.37;0.70;;;;;;;;;;4976687;28;20530;-69
2021/01/31 03:37:20;;;;;;;2.20;0.60;;;;;;;;;;4975896;28;20058;-69
2021/01/31 03:39:46;;;;;;;0.93;0.50;;;;;;;;;;4976738;28;20038;-69
2021/01/31 03:42:13;;;;;;;0.60;0.53;;;;;;;;;;4976520;28;20030;-69
2021/01/31 03:44:42;;;;;;;0.70;0.40;;;;;;;;;;4976483;28;20057;-69
2021/01/31 03:47:24;;;;;;;0.43;0.37;;;;;;;;;;4975546;28;20463;-69
2021/01/31 03:49:52;;;;;;;1.20;0.40;;;;;;;;;;4976850;28;20094;-69
2021/01/31 03:52:19;;;;;;;0.50;0.40;;;;;;;;;;4976488;28;20463;-69
2021/01/31 03:54:45;;;;;;;2.80;0.30;;;;;;;;;;4976237;28;20102;-69
2021/01/31 03:57:14;;;;;;;0.77;0.30;;;;;;;;;;4975656;28;20428;-69
2021/01/31 03:59:42;;;;;;;0.53;0.37;;;;;;;;;;4975387;28;20102;-69
2021/01/31 04:02:10;;;;;;;1.43;0.40;;;;;;;;;;4976132;28;20110;-69
2021/01/31 04:04:38;;;;;;;1.63;0.50;;;;;;;;;;4976123;28;20023;-69
2021/01/31 04:07:10;;;;;;;2.13;1.70;;;;;;;;;;4976357;28;20073;-69
2021/01/31 04:09:38;;;;;;;0.85;0.50;;;;;;;;;;4976265;28;20031;-69
2021/01/31 04:12:05;;;;;;;0.83;0.50;;;;;;;;;;4975942;28;20126;-69
2021/01/31 04:14:36;;;;;;;0.77;0.30;;;;;;;;;;4975040;28;20022;-67
2021/01/31 04:17:02;;;;;;;0.50;0.40;;;;;;;;;;4974326;28;20031;-69
2021/01/31 04:19:28;;;;;;;0.30;0.30;;;;;;;;;;4975035;28;20476;-69
2021/01/31 04:21:54;;;;;;;0.93;0.40;;;;;;;;;;4975000;28;20046;-69
2021/01/31 04:24:20;;;;;;;1.40;0.63;;;;;;;;;;4974179;28;20033;-69
2021/01/31 04:26:46;;;;;;;1.23;0.60;;;;;;;;;;4974277;28;20019;-69
2021/01/31 04:29:12;;;;;;;1.03;0.60;;;;;;;;;;4974822;28;20038;-69
2021/01/31 04:31:38;;;;;;;3.37;0.60;;;;;;;;;;4975048;28;20023;-69
2021/01/31 04:34:04;;;;;;;1.10;0.60;;;;;;;;;;4974887;28;20496;-69
2021/01/31 04:36:30;;;;;;;0.90;0.67;;;;;;;;;;4975798;28;20019;-69
2021/01/31 04:38:57;;;;;;;1.90;0.57;;;;;;;;;;4973565;28;20105;-69
2021/01/31 04:41:24;;;;;;;1.03;0.50;;;;;;;;;;4975585;28;20022;-69
2021/01/31 04:43:53;;;;;;;0.53;0.47;;;;;;;;;;4975646;28;20078;-69
2021/01/31 04:46:21;;;;;;;1.27;0.50;;;;;;;;;;4975514;28;20035;-69
2021/01/31 04:48:47;;;;;;;1.90;0.50;;;;;;;;;;4974754;28;20033;-69
2021/01/31 04:51:31;;;;;;;3.90;0.70;;;;;;;;;;4973442;28;20034;-69
2021/01/31 04:54:13;;;;;;;0.70;0.50;;;;;;;;;;4974269;28;20038;-69
2021/01/31 04:56:39;;;;;;;1.97;0.50;;;;;;;;;;4974589;28;20110;-69
2021/01/31 04:59:10;;;;;;;0.93;0.50;;;;;;;;;;4975083;28;20130;-69
2021/01/31 05:01:36;;;;;;;0.47;0.40;;;;;;;;;;4975485;28;20507;-69
2021/01/31 05:04:11;;;;;;;0.70;0.40;;;;;;;;;;4974179;28;20039;-67
2021/01/31 05:06:53;;;;;;;1.13;0.50;;;;;;;;;;4975511;28;20464;-69
2021/01/31 05:09:21;;;;;;;3.28;0.40;;;;;;;;;;4973875;28;20023;-69
2021/01/31 05:11:59;;;;;;;6.10;0.50;;;;;;;;;;4974899;28;20424;-69
2021/01/31 05:14:31;;;;;;;0.77;0.60;;;;;;;;;;4975023;28;20559;-69
2021/01/31 05:16:57;;;;;;;5.32;0.50;;;;;;;;;;4975051;28;20022;-69
2021/01/31 05:19:29;;;;;;;4.10;0.80;;;;;;;;;;4974864;28;20023;-69
2021/01/31 05:21:56;;;;;;;0.77;0.60;;;;;;;;;;4974842;28;20054;-69
2021/01/31 05:24:22;;;;;;;0.63;0.40;;;;;;;;;;4974913;28;20294;-69
2021/01/31 05:26:56;;;;;;;0.80;0.67;;;;;;;;;;4975007;28;20526;-69
2021/01/31 05:29:23;;;;;;;2.40;0.80;;;;;;;;;;4974869;28;20054;-69
2021/01/31 05:31:57;;;;;;;1.63;0.70;;;;;;;;;;4974963;28;20074;-69
2021/01/31 05:34:38;;;;;;;1.33;0.80;;;;;;;;;;4974700;28;20026;-69
2021/01/31 05:37:06;;;;;;;2.43;1.03;;;;;;;;;;4974439;28;20029;-69
2021/01/31 05:39:36;;;;;;;1.50;1.00;;;;;;;;;;4974219;28;20085;-69
2021/01/31 05:42:07;;;;;;;1.43;0.97;;;;;;;;;;4974127;28;20088;-70
2021/01/31 05:44:33;;;;;;;2.00;0.80;;;;;;;;;;4974295;28;20054;-69
2021/01/31 05:47:01;;;;;;;1.37;0.70;;;;;;;;;;4973405;28;20373;-69
2021/01/31 05:49:33;;;;;;;1.13;0.70;;;;;;;;;;4973866;28;20456;-69
2021/01/31 05:51:59;;;;;;;1.95;0.93;;;;;;;;;;4973680;28;20335;-69
2021/01/31 05:54:27;;;;;;;2.80;0.60;;;;;;;;;;4973741;28;20054;-69
2021/01/31 05:56:54;;;;;;;0.97;0.70;;;;;;;;;;4973186;28;20062;-69
2021/01/31 05:59:20;;;;;;;0.93;0.60;;;;;;;;;;4974155;28;20464;-69
2021/01/31 06:01:50;;;;;;;1.03;0.70;;;;;;;;;;4973712;28;20026;-69
2021/01/31 06:04:17;;;;;;;1.67;0.90;;;;;;;;;;4973095;28;20089;-69
2021/01/31 06:06:44;;;;;;;0.67;0.60;;;;;;;;;;4974199;28;20027;-69
2021/01/31 06:09:15;;;;;;;1.33;0.93;;;;;;;;;;4974210;28;20480;-69
2021/01/31 06:11:41;;;;;;;1.30;0.80;;;;;;;;;;4974079;28;20023;-69
2021/01/31 06:14:11;;;;;;;2.20;1.00;;;;;;;;;;4974066;28;20062;-69
2021/01/31 06:16:37;;;;;;;1.17;0.60;;;;;;;;;;4974502;28;20023;-69
2021/01/31 06:19:03;;;;;;;1.10;0.60;;;;;;;;;;4973928;28;20023;-66
2021/01/31 06:21:41;;;;;;;0.80;0.40;;;;;;;;;;4973881;28;20059;-66
2021/01/31 06:24:27;;;;;;;0.30;0.30;;;;;;;;;;4974152;28;20034;-69
2021/01/31 06:26:54;;;;;;;3.23;0.50;;;;;;;;;;4974262;28;20042;-69
2021/01/31 06:29:20;;;;;;;0.30;0.30;;;;;;;;;;4974130;28;20061;-69
2021/01/31 06:32:01;;;;;;;0.40;0.30;;;;;;;;;;4974152;28;20110;-69
2021/01/31 06:34:27;;;;;;;0.60;0.40;;;;;;;;;;4973857;28;20042;-69
2021/01/31 06:37:02;;;;;;;0.80;0.43;;;;;;;;;;4974066;28;20427;-69
2021/01/31 06:39:47;;;;;;;0.83;0.50;;;;;;;;;;4974133;28;20023;-69
2021/01/31 06:42:18;;;;;;;1.40;0.60;;;;;;;;;;4974244;28;20033;-69
2021/01/31 06:44:52;;;;;;;1.00;0.80;;;;;;;;;;4973783;28;20038;-69
2021/01/31 06:47:18;;;;;;;3.27;2.20;;;;;;;;;;4973929;28;20058;-69
2021/01/31 06:49:47;;;;;;;3.80;3.40;;;;;;;;;;4973982;28;20065;-69
2021/01/31 06:52:16;;;;;;;2.47;1.73;;;;;;;;;;4976078;28;20031;-69
2021/01/31 06:55:01;;;;;;;1.70;1.07;;;;;;;;;;4977701;28;20061;-69
2021/01/31 06:57:45;;;;;;;1.47;0.90;;;;;;;;;;4977626;28;20022;-69
2021/01/31 07:00:30;;;;;;;1.37;0.80;;;;;;;;;;4976047;28;20027;-69
2021/01/31 07:03:02;;;;;;;2.47;0.90;;;;;;;;;;4974825;28;20035;-69
2021/01/31 07:05:34;;;;;;;4.97;1.25;;;;;;;;;;4975292;28;20110;-69
2021/01/31 07:08:06;;;;;;;2.47;1.08;;;;;;;;;;4976983;28;20038;-69
2021/01/31 07:10:51;;;;;;;2.08;1.13;;;;;;;;;;4977483;28;20027;-69
2021/01/31 07:13:35;;;;;;;3.80;0.90;;;;;;;;;;4977281;28;20039;-69
2021/01/31 07:16:20;;;;;;;1.40;0.70;;;;;;;;;;4977456;28;20481;-69
2021/01/31 07:19:05;;;;;;;1.53;0.83;;;;;;;;;;4976986;28;20391;-70
2021/01/31 07:21:37;;;;;;;2.43;0.80;;;;;;;;;;4976877;28;20515;-69
2021/01/31 07:24:04;;;;;;;1.13;0.70;;;;;;;;;;4977310;28;20035;-69
2021/01/31 07:26:53;;;;;;;1.90;1.00;;;;;;;;;;4977014;28;20046;-69
2021/01/31 07:29:24;;;;;;;2.13;1.03;;;;;;;;;;4974239;28;20133;-69
2021/01/31 07:31:51;;;;;;;2.23;0.93;;;;;;;;;;4976736;28;20025;-69
2021/01/31 07:34:20;;;;;;;1.43;0.93;;;;;;;;;;4977039;28;20062;-69
2021/01/31 07:37:06;;;;;;;1.67;0.97;;;;;;;;;;4976741;28;20027;-69
2021/01/31 07:39:52;;;;;;;2.07;1.00;;;;;;;;;;4976700;28;20109;-69
2021/01/31 07:42:20;;;;;;;1.10;0.60;;;;;;;;;;4976757;28;20027;-69
2021/01/31 07:44:46;;;;;;;3.23;0.60;;;;;;;;;;4976688;28;20027;-69
2021/01/31 07:47:12;;;;;;;1.00;0.60;;;;;;;;;;4974755;28;20994;-70
2021/01/31 07:49:57;;;;;;;1.20;0.80;;;;;;;;;;4972062;28;20043;-70
2021/01/31 07:52:24;;;;;;;1.20;0.80;;;;;;;;;;4971963;28;20043;-69
2021/01/31 07:55:07;;;;;;;2.10;0.80;;;;;;;;;;4975120;28;20035;-69
2021/01/31 07:57:34;;;;;;;;;;;;;;;;;;4975937;28;20091;-69
2021/01/31 08:00:02;;;;;;;1.10;0.73;;;;;;;;;;4976085;28;19902;-69
2021/01/31 08:02:32;;;;;;;1.87;0.80;;;;;;;;;;4974702;28;20027;-70
2021/01/31 08:04:59;;;;;;;1.33;0.90;;;;;;;;;;4976094;28;20073;-70
2021/01/31 08:07:43;;;;;;;0.93;0.63;;;;;;;;;;4976057;28;20023;-69
2021/01/31 08:10:10;;;;;;;1.10;0.80;;;;;;;;;;4973221;28;20022;-69
2021/01/31 08:12:54;;;;;;;2.43;0.90;;;;;;;;;;4973261;28;20031;-70
2021/01/31 08:15:32;;;;;;;1.43;0.80;;;;;;;;;;4974865;28;20022;-69
2021/01/31 08:17:58;;;;;;;1.90;1.10;;;;;;;;;;4975710;28;20043;-69
2021/01/31 08:20:27;;;;;;;2.13;1.40;;;;;;;;;;4976121;28;20042;-69
2021/01/31 08:23:00;;;;;;;2.00;1.17;;;;;;;;;;4975942;28;20027;-69
2021/01/31 08:25:27;;;;;;;2.27;1.50;;;;;;;;;;4976126;28;20019;-69
2021/01/31 08:28:09;;;;;;;2.87;1.40;;;;;;;;;;4975980;28;20034;-69
2021/01/31 08:30:54;;;;;;;2.97;1.80;;;;;;;;;;4975972;28;20349;-69
2021/01/31 08:33:27;;;;;;;24.03;14.20;;;;;;;;;;4974555;28;20109;-69
2021/01/31 08:35:53;;;;;;;6.40;3.95;;;;;;;;;;4972948;28;20395;-69
2021/01/31 08:38:24;;;;;;;1.93;1.10;;;;;;;;;;4972708;28;20026;-69
2021/01/31 08:41:01;;;;;;;1.30;0.70;;;;;;;;;;4974640;28;20023;-68
2021/01/31 08:43:27;;;;;;;1.30;0.67;;;;;;;;;;4975141;28;20061;-68
2021/01/31 08:45:54;;;;;;;0.93;0.60;;;;;;;;;;4974995;28;20054;-69
2021/01/31 08:48:23;;;;;;;1.23;0.57;;;;;;;;;;4973880;28;20085;-68
2021/01/31 08:51:01;;;;;;;1.30;0.70;;;;;;;;;;4973237;28;20428;-69
2021/01/31 08:53:27;;;;;;;1.87;0.80;;;;;;;;;;4973498;28;20033;-70
2021/01/31 08:55:54;;;;;;;1.43;0.77;;;;;;;;;;4973932;28;20027;-71
2021/01/31 08:58:20;;;;;;;1.57;0.90;;;;;;;;;;4974991;28;20030;-71
2021/01/31 09:00:46;;;;;;;0.93;0.57;;;;;;;;;;4975129;28;20030;-69
2021/01/31 09:03:13;;;;;;;1.50;0.80;;;;;;;;;;4972422;28;20038;-69
2021/01/31 09:05:39;;;;;;;0.90;0.70;;;;;;;;;;4972751;28;20098;-69
2021/01/31 09:08:05;;;;;;;2.00;1.20;;;;;;;;;;4973804;28;20118;-73
2021/01/31 09:10:32;;;;;;;1.63;0.93;;;;;;;;;;4975509;28;20027;-74
2021/01/31 09:13:13;;;;;;;3.03;0.90;;;;;;;;;;4975028;28;20070;-74
2021/01/31 09:15:39;;;;;;;1.73;0.87;;;;;;;;;;4972763;28;20433;-69
2021/01/31 09:18:24;;;;;;;1.20;0.93;;;;;;;;;;4973030;28;20027;-69
2021/01/31 09:20:51;;;;;;;1.10;0.80;;;;;;;;;;4974106;28;20058;-69
2021/01/31 09:23:20;;;;;;;1.63;0.90;;;;;;;;;;4975053;28;20035;-69
2021/01/31 09:25:47;;;;;;;1.77;1.00;;;;;;;;;;4975029;28;20066;-69
2021/01/31 09:28:21;;;;;;;1.57;1.00;;;;;;;;;;4972493;28;20034;-69
2021/01/31 09:30:48;;;;;;;2.20;1.00;;;;;;;;;;4972035;28;20031;-69
2021/01/31 09:33:19;;;;;;;1.20;0.90;;;;;;;;;;4972402;28;20468;-69
2021/01/31 09:35:45;;;;;;;3.23;1.00;;;;;;;;;;4972162;28;20082;-69
2021/01/31 09:38:14;;;;;;;1.30;1.00;;;;;;;;;;4972447;28;20396;-69
2021/01/31 09:40:41;;;;;;;1.40;1.17;;;;;;;;;;4974730;28;20050;-69
2021/01/31 09:43:08;;;;;;;1.90;1.17;;;;;;;;;;4974809;28;20026;-69
2021/01/31 09:45:42;;;;;;;1.90;1.30;;;;;;;;;;4974754;28;20034;-69
2021/01/31 09:48:09;;;;;;;2.93;1.57;;;;;;;;;;4973772;28;20050;-69
2021/01/31 09:50:35;;;;;;;1.43;1.10;;;;;;;;;;4972929;28;20033;-69
2021/01/31 09:53:01;;;;;;;1.87;1.13;;;;;;;;;;4974482;28;20388;-69
2021/01/31 09:55:44;;;;;;;2.90;1.50;;;;;;;;;;4974291;28;20027;-69
2021/01/31 09:58:21;;;;;;;2.03;1.20;;;;;;;;;;4972390;28;20482;-69
2021/01/31 10:00:47;;;;;;;2.50;1.50;;;;;;;;;;4971715;28;20034;-69
2021/01/31 10:03:22;;;;;;;2.20;1.30;;;;;;;;;;4971748;28;20538;-72
2021/01/31 10:05:48;;;;;;;1.80;1.20;;;;;;;;;;4973275;28;20078;-69
2021/01/31 10:08:16;;;;;;;1.80;1.30;;;;;;;;;;4974418;28;20030;-69
2021/01/31 10:10:45;;;;;;;1.87;1.23;;;;;;;;;;4974488;28;20018;-73
2021/01/31 10:13:14;;;;;;;2.83;1.70;;;;;;;;;;4973980;28;20038;-69
2021/01/31 10:15:41;;;;;;;2.07;1.30;;;;;;;;;;4974076;28;20050;-69
2021/01/31 10:18:13;;;;;;;6.27;4.03;;;;;;;;;;4974051;28;20439;-67
2021/01/31 10:20:40;;;;;;;9.50;5.40;;;;;;;;;;4973831;28;20039;-70
2021/01/31 10:23:06;;;;;;;2.60;1.30;;;;;;;;;;4974107;28;20030;-74
2021/01/31 10:25:37;;;;;;;1.43;0.97;;;;;;;;;;4974155;28;20432;-73
2021/01/31 10:28:04;;;;;;;2.20;1.30;;;;;;;;;;4977793;28;20035;-69
2021/01/31 10:30:50;;;;;;;1.70;1.20;;;;;;;;;;4977647;28;20134;-69
2021/01/31 10:33:35;;;;;;;2.97;1.87;;;;;;;;;;4977986;28;20045;-70
2021/01/31 10:36:15;;;;;;;15.03;8.33;;;;;;;;;;4976355;28;20018;-75
2021/01/31 10:38:44;;;;;;;3.10;1.40;;;;;;;;;;4977767;28;20031;-76
2021/01/31 10:41:11;;;;;;;3.57;2.50;;;;;;;;;;4977691;28;20302;-75
2021/01/31 10:43:37;;;;;;;2.23;1.30;;;;;;;;;;4977447;28;20023;-71
2021/01/31 10:46:03;;;;;;;3.70;1.77;;;;;;;;;;4975644;28;20034;-69
2021/01/31 10:48:29;;;;;;;2.73;1.60;;;;;;;;;;4974540;28;20031;-69
2021/01/31 10:50:55;;;;;;;2.90;1.90;;;;;;;;;;4975570;28;20027;-73
2021/01/31 10:53:21;;;;;;;2.43;1.50;;;;;;;;;;4977540;28;20345;-69
2021/01/31 10:55:48;;;;;;;2.33;1.50;;;;;;;;;;4977306;28;20405;-73
2021/01/31 10:58:14;;;;;;;1.83;1.30;;;;;;;;;;4976331;28;20066;-69
2021/01/31 11:00:40;;;;;;;2.10;1.27;;;;;;;;;;4977216;28;20098;-68
2021/01/31 11:03:06;;;;;;;1.83;1.20;;;;;;;;;;4977904;28;20030;-69
2021/01/31 11:05:33;;;;;;;2.37;1.43;;;;;;;;;;4977578;28;20476;-69
2021/01/31 11:07:59;;;;;;;2.33;1.13;;;;;;;;;;4977395;28;20034;-69
2021/01/31 11:10:25;;;;;;;2.67;1.57;;;;;;;;;;4977638;28;20082;-68
2021/01/31 11:12:51;;;;;;;2.23;1.53;;;;;;;;;;4977471;28;20069;-69
2021/01/31 11:15:18;;;;;;;1.97;1.50;;;;;;;;;;4977751;28;20110;-69
2021/01/31 11:17:44;;;;;;;1.50;1.10;;;;;;;;;;4977689;28;20027;-69
2021/01/31 11:20:11;;;;;;;2.33;1.40;;;;;;;;;;4977400;28;20408;-68
2021/01/31 11:22:37;;;;;;;2.10;1.30;;;;;;;;;;4977443;28;20027;-69
2021/01/31 11:25:04;;;;;;;1.93;1.40;;;;;;;;;;4977438;28;20392;-69
2021/01/31 11:27:30;;;;;;;2.07;1.40;;;;;;;;;;4976951;28;20443;-68
2021/01/31 11:29:56;;;;;;;4.83;1.50;;;;;;;;;;4976858;28;20019;-69
2021/01/31 11:32:23;;;;;;;2.50;1.53;;;;;;;;;;4977012;28;20518;-69
2021/01/31 11:34:49;;;;;;;2.13;1.40;;;;;;;;;;4977070;28;20030;-69
2021/01/31 11:37:16;;;;;;;2.47;1.77;;;;;;;;;;4976443;28;20139;-69
2021/01/31 11:39:42;;;;;;;2.73;1.67;;;;;;;;;;4976763;28;20058;-68
2021/01/31 11:42:08;;;;;;;2.10;1.47;;;;;;;;;;4976562;28;20039;-68
2021/01/31 11:44:34;;;;;;;2.30;1.53;;;;;;;;;;4976390;28;20472;-69
2021/01/31 11:47:00;;;;;;;2.00;1.20;;;;;;;;;;4977033;28;20035;-68
2021/01/31 11:49:26;;;;;;;2.50;1.40;;;;;;;;;;4976958;28;20082;-69
2021/01/31 11:51:52;;;;;;;2.10;1.43;;;;;;;;;;4976638;28;20058;-69
2021/01/31 11:54:18;;;;;;;4.20;1.27;;;;;;;;;;4976747;28;20037;-69
2021/01/31 11:56:44;;;;;;;2.93;1.60;;;;;;;;;;4976567;28;20031;-68
2021/01/31 11:59:10;;;;;;;2.40;1.70;;;;;;;;;;4973763;28;20118;-69
2021/01/31 12:01:40;;;;;;;2.13;1.50;;;;;;;;;;4973325;28;20065;-69
2021/01/31 12:04:07;;;;;;;3.30;1.60;;;;;;;;;;4975056;28;20982;-70
2021/01/31 12:06:33;;;;;;;3.80;1.77;;;;;;;;;;4976516;28;20023;-69
2021/01/31 12:09:00;;;;;;;3.77;1.70;;;;;;;;;;4976183;28;20027;-69
2021/01/31 12:11:27;;;;;;;3.77;1.63;;;;;;;;;;4976040;28;20037;-69
2021/01/31 12:13:54;;;;;;;5.37;1.93;;;;;;;;;;4976316;28;20077;-69
2021/01/31 12:16:20;;;;;;;3.50;2.20;;;;;;;;;;4975435;28;20089;-72
2021/01/31 12:18:46;;;;;;;2.53;1.70;;;;;;;;;;4975402;28;20072;-71
2021/01/31 12:21:12;;;;;;;2.13;1.57;;;;;;;;;;4975670;28;20126;-69
2021/01/31 12:23:38;;;;;;;2.90;1.60;;;;;;;;;;4974410;28;20035;-66
2021/01/31 12:26:04;;;;;;;2.50;1.47;;;;;;;;;;4973495;28;20407;-69
2021/01/31 12:28:30;;;;;;;2.10;1.60;;;;;;;;;;4973342;28;20030;-69
2021/01/31 12:30:56;;;;;;;2.60;2.00;;;;;;;;;;4975678;28;20495;-69
2021/01/31 12:33:22;;;;;;;2.73;1.70;;;;;;;;;;4975927;28;20171;-69
2021/01/31 12:35:48;;;;;;;2.00;1.50;;;;;;;;;;4975689;28;20019;-69
2021/01/31 12:38:15;;;;;;;2.87;1.70;;;;;;;;;;4975462;28;20038;-69
2021/01/31 12:40:41;;;;;;;3.23;1.73;;;;;;;;;;4974343;28;20023;-69
2021/01/31 12:43:07;;;;;;;3.33;2.10;;;;;;;;;;4975560;28;20026;-69
2021/01/31 12:45:33;;;;;;;2.80;2.00;;;;;;;;;;4975363;28;20026;-69
2021/01/31 12:47:59;;;;;;;2.97;2.00;;;;;;;;;;4975163;28;20070;-70
2021/01/31 12:50:27;;;;;;;3.37;1.93;;;;;;;;;;4974446;28;20023;-70
2021/01/31 12:52:53;;;;;;;2.40;1.70;;;;;;;;;;4975053;28;20058;-69
2021/01/31 12:55:19;;;;;;;2.63;1.90;;;;;;;;;;4975335;28;20545;-69
2021/01/31 12:57:45;;;;;;;2.80;2.00;;;;;;;;;;4975416;28;20019;-72
2021/01/31 13:00:13;;;;;;;2.03;1.50;;;;;;;;;;4975289;28;20105;-69
2021/01/31 13:02:39;;;;;;;3.43;2.00;;;;;;;;;;4975423;28;20023;-70
2021/01/31 13:05:07;;;;;;;2.53;1.70;;;;;;;;;;4975267;28;20034;-70
2021/01/31 13:07:33;;;;;;;3.03;2.10;;;;;;;;;;4975117;28;20034;-69
2021/01/31 13:09:59;;;;;;;3.20;1.80;;;;;;;;;;4975280;28;20030;-69
2021/01/31 13:12:25;;;;;;;3.27;2.40;;;;;;;;;;4974810;28;20039;-72
2021/01/31 13:14:51;;;;;;;2.67;1.77;;;;;;;;;;4975084;28;20022;-69
2021/01/31 13:17:17;;;;;;;2.47;1.73;;;;;;;;;;4974842;28;20437;-69
2021/01/31 13:19:43;;;;;;;3.70;2.40;;;;;;;;;;4974817;28;20072;-70
2021/01/31 13:22:09;;;;;;;3.20;2.00;;;;;;;;;;4975098;28;20078;-69
2021/01/31 13:24:35;;;;;;;6.47;2.30;;;;;;;;;;4974889;28;20030;-69
2021/01/31 13:27:01;;;;;;;3.30;2.07;;;;;;;;;;4975166;28;20365;-69
2021/01/31 13:29:27;;;;;;;3.27;2.17;;;;;;;;;;4974793;28;20103;-70
2021/01/31 13:31:53;;;;;;;3.10;2.20;;;;;;;;;;4974638;28;20507;-69
2021/01/31 13:34:19;;;;;;;3.60;2.43;;;;;;;;;;4974835;28;20101;-70
2021/01/31 13:36:45;;;;;;;3.90;2.53;;;;;;;;;;4974783;28;20106;-69
2021/01/31 13:39:12;;;;;;;3.43;2.27;;;;;;;;;;4974505;28;20027;-69
2021/01/31 13:41:38;;;;;;;3.00;2.00;;;;;;;;;;4974753;28;20085;-73
2021/01/31 13:44:04;;;;;;;3.20;1.80;;;;;;;;;;4973518;28;20027;-72
2021/01/31 13:46:30;;;;;;;3.47;2.00;;;;;;;;;;4973665;28;20075;-68
2021/01/31 13:48:56;;;;;;;3.03;2.10;;;;;;;;;;4973855;28;20117;-68
2021/01/31 13:51:22;;;;;;;2.70;2.07;;;;;;;;;;4974472;28;20073;-68
2021/01/31 13:53:48;;;;;;;3.80;2.10;;;;;;;;;;4971714;28;20042;-65
2021/01/31 13:56:14;;;;;;;2.83;1.90;;;;;;;;;;4971394;28;20488;-69
2021/01/31 13:58:40;;;;;;;3.03;2.10;;;;;;;;;;4973229;28;20033;-67
2021/01/31 14:01:06;;;;;;;2.43;1.90;;;;;;;;;;4973964;28;20034;-68
2021/01/31 14:03:33;;;;;;;2.77;1.80;;;;;;;;;;4973209;28;20086;-68
2021/01/31 14:05:59;;;;;;;3.37;2.13;;;;;;;;;;4972920;28;20058;-67
2021/01/31 14:08:25;;;;;;;3.43;2.10;;;;;;;;;;4973086;28;20098;-68
2021/01/31 14:10:51;;;;;;;3.00;2.10;;;;;;;;;;4974319;28;20480;-68
2021/01/31 14:13:17;;;;;;;2.70;1.83;;;;;;;;;;4974468;28;20403;-67
2021/01/31 14:15:43;;;;;;;3.23;2.10;;;;;;;;;;4974253;28;20499;-67
2021/01/31 14:18:09;;;;;;;2.47;1.80;;;;;;;;;;4974291;28;20035;-68
2021/01/31 14:20:35;;;;;;;3.00;1.80;;;;;;;;;;4974604;28;20039;-67
2021/01/31 14:23:01;;;;;;;2.90;2.00;;;;;;;;;;4974560;28;20039;-67
2021/01/31 14:25:29;;;;;;;3.47;1.90;;;;;;;;;;4974320;28;20027;-67
2021/01/31 14:27:55;;;;;;;3.40;2.20;;;;;;;;;;4974410;28;20035;-68
2021/01/31 14:30:22;;;;;;;2.57;1.77;;;;;;;;;;4974252;28;20023;-67
2021/01/31 14:32:48;;;;;;;2.47;1.70;;;;;;;;;;4974445;28;20113;-68